sensor_id;sensor_type;location;lat;lon;timestamp;temperature;humidity
44166;DHT22;30476;53.468;9.826;2024-02-04T00:01:41;7.80;99.90
44166;DHT22;30476;53.468;9.826;2024-02-04T00:04:07;7.80;99.90
44166;DHT22;30476;53.468;9.826;2024-02-04T00:06:33;7.70;99.90
44166;DHT22;30476;53.468;9.826;2024-02-04T00:08:58;7.70;99.90
44166;DHT22;30476;53.468;9.826;2024-02-04T00:11:24;7.70;99.90
44166;DHT22;30476;53.468;9.826;2024-02-04T00:13:50;7.70;99.90
44166;DHT22;30476;53.468;9.826;2024-02-04T00:16:16;7.70;99.90
44166;DHT22;30476;53.468;9.826;2024-02-04T00:18:41;7.70;99.90
44166;DHT22;30476;53.468;9.826;2024-02-04T00:21:07;7.70;99.90
44166;DHT22;30476;53.468;9.826;2024-02-04T00:23:33;7.60;99.90
44166;DHT22;30476;53.468;9.826;2024-02-04T00:25:59;7.60;99.90
44166;DHT22;30476;53.468;9.826;2024-02-04T00:28:24;7.60;99.90
44166;DHT22;30476;53.468;9.826;2024-02-04T00:30:51;7.60;99.90
44166;DHT22;30476;53.468;9.826;2024-02-04T00:33:21;7.60;99.90
44166;DHT22;30476;53.468;9.826;2024-02-04T00:35:47;7.50;99.90
44166;DHT22;30476;53.468;9.826;2024-02-04T00:38:12;7.50;99.90
44166;DHT22;30476;53.468;9.826;2024-02-04T00:40:38;7.50;99.90
44166;DHT22;30476;53.468;9.826;2024-02-04T00:43:04;7.50;99.90
44166;DHT22;30476;53.468;9.826;2024-02-04T00:45:30;7.50;99.90
44166;DHT22;30476;53.468;9.826;2024-02-04T00:47:55;7.50;99.90
44166;DHT22;30476;53.468;9.826;2024-02-04T00:50:21;7.50;99.90
44166;DHT22;30476;53.468;9.826;2024-02-04T00:52:47;7.60;99.90
44166;DHT22;30476;53.468;9.826;2024-02-04T00:55:13;7.50;99.90
44166;DHT22;30476;53.468;9.826;2024-02-04T00:57:38;7.40;99.90
44166;DHT22;30476;53.468;9.826;2024-02-04T01:00:05;7.50;99.90
44166;DHT22;30476;53.468;9.826;2024-02-04T01:02:31;7.50;99.90
44166;DHT22;30476;53.468;9.826;2024-02-04T01:04:56;7.40;99.90
44166;DHT22;30476;53.468;9.826;2024-02-04T01:07:22;7.40;99.90
44166;DHT22;30476;53.468;9.826;2024-02-04T01:09:48;7.40;99.90
44166;DHT22;30476;53.468;9.826;2024-02-04T01:12:14;7.50;99.90
44166;DHT22;30476;53.468;9.826;2024-02-04T01:14:40;7.50;99.90
44166;DHT22;30476;53.468;9.826;2024-02-04T01:17:05;7.50;99.90
44166;DHT22;30476;53.468;9.826;2024-02-04T01:19:31;7.40;99.90
44166;DHT22;30476;53.468;9.826;2024-02-04T01:21:56;7.50;99.90
44166;DHT22;30476;53.468;9.826;2024-02-04T01:24:24;7.50;99.90
44166;DHT22;30476;53.468;9.826;2024-02-04T01:26:50;7.50;99.90
44166;DHT22;30476;53.468;9.826;2024-02-04T01:29:16;7.50;99.90
44166;DHT22;30476;53.468;9.826;2024-02-04T01:31:42;7.50;99.90
44166;DHT22;30476;53.468;9.826;2024-02-04T01:34:08;7.50;99.90
44166;DHT22;30476;53.468;9.826;2024-02-04T01:36:33;7.60;99.90
44166;DHT22;30476;53.468;9.826;2024-02-04T01:38:59;7.60;99.90
44166;DHT22;30476;53.468;9.826;2024-02-04T01:41:25;7.60;99.90
44166;DHT22;30476;53.468;9.826;2024-02-04T01:43:54;7.60;99.90
44166;DHT22;30476;53.468;9.826;2024-02-04T01:46:19;7.60;99.90
44166;DHT22;30476;53.468;9.826;2024-02-04T01:48:45;7.60;99.90
44166;DHT22;30476;53.468;9.826;2024-02-04T01:51:12;7.60;99.90
44166;DHT22;30476;53.468;9.826;2024-02-04T01:53:40;7.60;99.90
44166;DHT22;30476;53.468;9.826;2024-02-04T01:56:07;7.70;99.90
44166;DHT22;30476;53.468;9.826;2024-02-04T01:58:33;7.70;99.90
44166;DHT22;30476;53.468;9.826;2024-02-04T02:00:59;7.80;99.90
44166;DHT22;30476;53.468;9.826;2024-02-04T02:03:26;7.80;99.90
44166;DHT22;30476;53.468;9.826;2024-02-04T02:05:52;7.80;99.90
44166;DHT22;30476;53.468;9.826;2024-02-04T02:08:18;7.80;99.90
44166;DHT22;30476;53.468;9.826;2024-02-04T02:10:46;7.80;99.90
44166;DHT22;30476;53.468;9.826;2024-02-04T02:13:27;7.90;99.90
44166;DHT22;30476;53.468;9.826;2024-02-04T02:15:58;7.90;99.90
44166;DHT22;30476;53.468;9.826;2024-02-04T02:24:07;7.90;99.90
44166;DHT22;30476;53.468;9.826;2024-02-04T02:26:36;7.90;99.90
44166;DHT22;30476;53.468;9.826;2024-02-04T02:29:05;7.90;99.90
44166;DHT22;30476;53.468;9.826;2024-02-04T02:31:31;7.90;99.90
44166;DHT22;30476;53.468;9.826;2024-02-04T02:33:58;7.90;99.90
44166;DHT22;30476;53.468;9.826;2024-02-04T02:36:24;7.90;99.90
44166;DHT22;30476;53.468;9.826;2024-02-04T02:39:03;7.90;99.90
44166;DHT22;30476;53.468;9.826;2024-02-04T02:41:35;7.90;99.90
44166;DHT22;30476;53.468;9.826;2024-02-04T02:44:03;7.90;99.90
44166;DHT22;30476;53.468;9.826;2024-02-04T02:46:30;7.80;99.90
44166;DHT22;30476;53.468;9.826;2024-02-04T02:48:57;7.80;99.90
44166;DHT22;30476;53.468;9.826;2024-02-04T02:51:23;7.90;99.90
44166;DHT22;30476;53.468;9.826;2024-02-04T02:53:49;7.80;99.90
44166;DHT22;30476;53.468;9.826;2024-02-04T02:56:14;7.80;99.90
44166;DHT22;30476;53.468;9.826;2024-02-04T02:58:40;7.80;99.90
44166;DHT22;30476;53.468;9.826;2024-02-04T03:01:06;7.80;99.90
44166;DHT22;30476;53.468;9.826;2024-02-04T03:03:31;7.70;99.90
44166;DHT22;30476;53.468;9.826;2024-02-04T03:05:57;7.70;99.90
44166;DHT22;30476;53.468;9.826;2024-02-04T03:08:23;7.70;99.90
44166;DHT22;30476;53.468;9.826;2024-02-04T03:10:48;7.70;99.90
44166;DHT22;30476;53.468;9.826;2024-02-04T03:13:14;7.70;99.90
44166;DHT22;30476;53.468;9.826;2024-02-04T03:15:40;7.70;99.90
44166;DHT22;30476;53.468;9.826;2024-02-04T03:18:08;7.70;99.90
44166;DHT22;30476;53.468;9.826;2024-02-04T03:20:34;7.70;99.90
44166;DHT22;30476;53.468;9.826;2024-02-04T03:23:00;7.60;99.90
44166;DHT22;30476;53.468;9.826;2024-02-04T03:25:25;7.70;99.90
44166;DHT22;30476;53.468;9.826;2024-02-04T03:27:53;7.60;99.90
44166;DHT22;30476;53.468;9.826;2024-02-04T03:30:19;7.60;99.90
44166;DHT22;30476;53.468;9.826;2024-02-04T03:32:45;7.60;99.90
44166;DHT22;30476;53.468;9.826;2024-02-04T03:35:10;7.60;99.90
44166;DHT22;30476;53.468;9.826;2024-02-04T03:37:36;7.60;99.90
44166;DHT22;30476;53.468;9.826;2024-02-04T03:40:02;7.60;99.90
44166;DHT22;30476;53.468;9.826;2024-02-04T03:42:28;7.60;99.90
44166;DHT22;30476;53.468;9.826;2024-02-04T03:44:54;7.50;99.90
44166;DHT22;30476;53.468;9.826;2024-02-04T03:47:20;7.50;99.90
44166;DHT22;30476;53.468;9.826;2024-02-04T03:49:45;7.50;99.90
44166;DHT22;30476;53.468;9.826;2024-02-04T03:52:11;7.50;99.90
44166;DHT22;30476;53.468;9.826;2024-02-04T03:54:37;7.50;99.90
44166;DHT22;30476;53.468;9.826;2024-02-04T03:57:03;7.40;99.90
44166;DHT22;30476;53.468;9.826;2024-02-04T03:59:28;7.40;99.90
44166;DHT22;30476;53.468;9.826;2024-02-04T04:01:54;7.40;99.90
44166;DHT22;30476;53.468;9.826;2024-02-04T04:04:20;7.40;99.90
44166;DHT22;30476;53.468;9.826;2024-02-04T04:06:46;7.40;99.90
44166;DHT22;30476;53.468;9.826;2024-02-04T04:09:12;7.40;99.90
44166;DHT22;30476;53.468;9.826;2024-02-04T04:11:39;7.40;99.90
44166;DHT22;30476;53.468;9.826;2024-02-04T04:14:04;7.40;99.90
44166;DHT22;30476;53.468;9.826;2024-02-04T04:16:30;7.40;99.90
44166;DHT22;30476;53.468;9.826;2024-02-04T04:18:56;7.40;99.90
44166;DHT22;30476;53.468;9.826;2024-02-04T04:21:24;7.40;99.90
44166;DHT22;30476;53.468;9.826;2024-02-04T04:23:50;7.40;99.90
44166;DHT22;30476;53.468;9.826;2024-02-04T04:26:15;7.30;99.90
44166;DHT22;30476;53.468;9.826;2024-02-04T04:28:41;7.30;99.90
44166;DHT22;30476;53.468;9.826;2024-02-04T04:31:07;7.30;99.90
44166;DHT22;30476;53.468;9.826;2024-02-04T04:33:33;7.30;99.90
44166;DHT22;30476;53.468;9.826;2024-02-04T04:35:59;7.30;99.90
44166;DHT22;30476;53.468;9.826;2024-02-04T04:38:24;7.30;99.90
44166;DHT22;30476;53.468;9.826;2024-02-04T04:40:50;7.20;99.90
44166;DHT22;30476;53.468;9.826;2024-02-04T04:43:16;7.20;99.90
44166;DHT22;30476;53.468;9.826;2024-02-04T04:45:42;7.20;99.90
44166;DHT22;30476;53.468;9.826;2024-02-04T04:48:07;7.20;99.90
44166;DHT22;30476;53.468;9.826;2024-02-04T04:50:34;7.20;99.90
44166;DHT22;30476;53.468;9.826;2024-02-04T04:53:00;7.20;99.90
44166;DHT22;30476;53.468;9.826;2024-02-04T04:55:25;7.20;99.90
44166;DHT22;30476;53.468;9.826;2024-02-04T04:57:51;7.20;99.90
44166;DHT22;30476;53.468;9.826;2024-02-04T05:00:18;7.20;99.90
44166;DHT22;30476;53.468;9.826;2024-02-04T05:02:44;7.20;99.90
44166;DHT22;30476;53.468;9.826;2024-02-04T05:05:13;7.20;99.90
44166;DHT22;30476;53.468;9.826;2024-02-04T05:07:39;7.20;99.90
44166;DHT22;30476;53.468;9.826;2024-02-04T05:10:06;7.20;99.90
44166;DHT22;30476;53.468;9.826;2024-02-04T05:12:33;7.20;99.90
44166;DHT22;30476;53.468;9.826;2024-02-04T05:14:59;7.20;99.90
44166;DHT22;30476;53.468;9.826;2024-02-04T05:17:26;7.20;99.90
44166;DHT22;30476;53.468;9.826;2024-02-04T05:19:52;7.20;99.90
44166;DHT22;30476;53.468;9.826;2024-02-04T05:22:18;7.20;99.90
44166;DHT22;30476;53.468;9.826;2024-02-04T05:24:43;7.10;99.90
44166;DHT22;30476;53.468;9.826;2024-02-04T05:27:09;7.10;99.90
44166;DHT22;30476;53.468;9.826;2024-02-04T05:29:35;7.10;99.90
44166;DHT22;30476;53.468;9.826;2024-02-04T05:32:01;7.10;99.90
44166;DHT22;30476;53.468;9.826;2024-02-04T05:34:27;7.10;99.90
44166;DHT22;30476;53.468;9.826;2024-02-04T05:36:52;7.10;99.90
44166;DHT22;30476;53.468;9.826;2024-02-04T05:39:18;7.10;99.90
44166;DHT22;30476;53.468;9.826;2024-02-04T05:41:44;7.10;99.90
44166;DHT22;30476;53.468;9.826;2024-02-04T05:44:10;7.10;99.90
44166;DHT22;30476;53.468;9.826;2024-02-04T05:46:36;7.10;99.90
44166;DHT22;30476;53.468;9.826;2024-02-04T05:49:02;7.10;99.90
44166;DHT22;30476;53.468;9.826;2024-02-04T05:51:28;7.10;99.90
44166;DHT22;30476;53.468;9.826;2024-02-04T05:53:54;7.10;99.90
44166;DHT22;30476;53.468;9.826;2024-02-04T05:56:22;7.10;99.90
44166;DHT22;30476;53.468;9.826;2024-02-04T05:58:48;7.10;99.90
44166;DHT22;30476;53.468;9.826;2024-02-04T06:01:15;7.10;99.90
44166;DHT22;30476;53.468;9.826;2024-02-04T06:03:42;7.10;99.90
44166;DHT22;30476;53.468;9.826;2024-02-04T06:06:13;7.10;99.90
44166;DHT22;30476;53.468;9.826;2024-02-04T06:08:39;7.00;99.90
44166;DHT22;30476;53.468;9.826;2024-02-04T06:11:05;7.10;99.90
44166;DHT22;30476;53.468;9.826;2024-02-04T06:13:34;7.10;99.90
44166;DHT22;30476;53.468;9.826;2024-02-04T06:16:00;7.10;99.90
44166;DHT22;30476;53.468;9.826;2024-02-04T06:18:26;7.10;99.90
44166;DHT22;30476;53.468;9.826;2024-02-04T06:20:51;7.10;99.90
44166;DHT22;30476;53.468;9.826;2024-02-04T06:23:17;7.10;99.90
44166;DHT22;30476;53.468;9.826;2024-02-04T06:25:45;7.10;99.90
44166;DHT22;30476;53.468;9.826;2024-02-04T06:28:10;7.20;99.90
44166;DHT22;30476;53.468;9.826;2024-02-04T06:30:36;7.20;99.90
44166;DHT22;30476;53.468;9.826;2024-02-04T06:33:02;7.20;99.90
44166;DHT22;30476;53.468;9.826;2024-02-04T06:35:29;7.20;99.90
44166;DHT22;30476;53.468;9.826;2024-02-04T06:37:54;7.20;99.90
44166;DHT22;30476;53.468;9.826;2024-02-04T06:40:20;7.20;99.90
44166;DHT22;30476;53.468;9.826;2024-02-04T06:42:46;7.20;99.90
44166;DHT22;30476;53.468;9.826;2024-02-04T06:45:12;7.20;99.90
44166;DHT22;30476;53.468;9.826;2024-02-04T06:47:37;7.20;99.90
44166;DHT22;30476;53.468;9.826;2024-02-04T06:50:04;7.30;99.90
44166;DHT22;30476;53.468;9.826;2024-02-04T06:52:31;7.30;99.90
44166;DHT22;30476;53.468;9.826;2024-02-04T06:54:57;7.30;99.90
44166;DHT22;30476;53.468;9.826;2024-02-04T06:57:22;7.30;99.90
44166;DHT22;30476;53.468;9.826;2024-02-04T06:59:48;7.30;99.90
44166;DHT22;30476;53.468;9.826;2024-02-04T07:02:14;7.20;99.90
44166;DHT22;30476;53.468;9.826;2024-02-04T07:04:40;7.20;99.90
44166;DHT22;30476;53.468;9.826;2024-02-04T07:07:06;7.20;99.90
44166;DHT22;30476;53.468;9.826;2024-02-04T07:09:32;7.30;99.90
44166;DHT22;30476;53.468;9.826;2024-02-04T07:11:57;7.30;99.90
44166;DHT22;30476;53.468;9.826;2024-02-04T07:14:23;7.30;99.90
44166;DHT22;30476;53.468;9.826;2024-02-04T07:16:49;7.20;99.90
44166;DHT22;30476;53.468;9.826;2024-02-04T07:19:15;7.30;99.90
44166;DHT22;30476;53.468;9.826;2024-02-04T07:21:40;7.20;99.90
44166;DHT22;30476;53.468;9.826;2024-02-04T07:24:06;7.20;99.90
44166;DHT22;30476;53.468;9.826;2024-02-04T07:26:32;7.20;99.90
44166;DHT22;30476;53.468;9.826;2024-02-04T07:28:58;7.20;99.90
44166;DHT22;30476;53.468;9.826;2024-02-04T07:31:24;7.30;99.90
44166;DHT22;30476;53.468;9.826;2024-02-04T07:33:50;7.30;99.90
44166;DHT22;30476;53.468;9.826;2024-02-04T07:36:15;7.30;99.90
44166;DHT22;30476;53.468;9.826;2024-02-04T07:38:41;7.20;99.90
44166;DHT22;30476;53.468;9.826;2024-02-04T07:41:07;7.20;99.90
44166;DHT22;30476;53.468;9.826;2024-02-04T07:43:33;7.30;99.90
44166;DHT22;30476;53.468;9.826;2024-02-04T07:45:59;7.30;99.90
44166;DHT22;30476;53.468;9.826;2024-02-04T07:48:25;7.30;99.90
44166;DHT22;30476;53.468;9.826;2024-02-04T07:50:50;7.30;99.90
44166;DHT22;30476;53.468;9.826;2024-02-04T07:53:16;7.30;99.90
44166;DHT22;30476;53.468;9.826;2024-02-04T07:55:42;7.30;99.90
44166;DHT22;30476;53.468;9.826;2024-02-04T07:58:08;7.30;99.90
44166;DHT22;30476;53.468;9.826;2024-02-04T08:00:33;7.30;99.90
44166;DHT22;30476;53.468;9.826;2024-02-04T08:02:59;7.30;99.90
44166;DHT22;30476;53.468;9.826;2024-02-04T08:05:25;7.30;99.90
44166;DHT22;30476;53.468;9.826;2024-02-04T08:07:50;7.40;99.90
44166;DHT22;30476;53.468;9.826;2024-02-04T08:10:16;7.40;99.90
44166;DHT22;30476;53.468;9.826;2024-02-04T08:12:42;7.40;99.90
44166;DHT22;30476;53.468;9.826;2024-02-04T08:15:08;7.40;99.90
44166;DHT22;30476;53.468;9.826;2024-02-04T08:17:34;7.40;99.90
44166;DHT22;30476;53.468;9.826;2024-02-04T08:20:00;7.40;99.90
44166;DHT22;30476;53.468;9.826;2024-02-04T08:22:25;7.50;99.90
44166;DHT22;30476;53.468;9.826;2024-02-04T08:24:51;7.50;99.90
44166;DHT22;30476;53.468;9.826;2024-02-04T08:27:17;7.50;99.90
44166;DHT22;30476;53.468;9.826;2024-02-04T08:29:44;7.50;99.90
44166;DHT22;30476;53.468;9.826;2024-02-04T08:32:10;7.60;99.90
44166;DHT22;30476;53.468;9.826;2024-02-04T08:34:36;7.60;99.90
44166;DHT22;30476;53.468;9.826;2024-02-04T08:37:02;7.60;99.90
44166;DHT22;30476;53.468;9.826;2024-02-04T08:39:28;7.60;99.90
44166;DHT22;30476;53.468;9.826;2024-02-04T08:41:55;7.60;99.90
44166;DHT22;30476;53.468;9.826;2024-02-04T08:44:21;7.60;99.90
44166;DHT22;30476;53.468;9.826;2024-02-04T08:46:47;7.70;99.90
44166;DHT22;30476;53.468;9.826;2024-02-04T08:49:13;7.70;99.90
44166;DHT22;30476;53.468;9.826;2024-02-04T08:51:38;7.70;99.90
44166;DHT22;30476;53.468;9.826;2024-02-04T08:54:04;7.70;99.90
44166;DHT22;30476;53.468;9.826;2024-02-04T08:56:30;7.70;99.90
44166;DHT22;30476;53.468;9.826;2024-02-04T08:58:56;7.80;99.90
44166;DHT22;30476;53.468;9.826;2024-02-04T09:01:22;7.80;99.90
44166;DHT22;30476;53.468;9.826;2024-02-04T09:03:47;7.80;99.90
44166;DHT22;30476;53.468;9.826;2024-02-04T09:06:13;7.80;99.90
44166;DHT22;30476;53.468;9.826;2024-02-04T09:08:39;7.80;99.90
44166;DHT22;30476;53.468;9.826;2024-02-04T09:11:05;7.90;99.90
44166;DHT22;30476;53.468;9.826;2024-02-04T09:13:30;7.90;99.90
44166;DHT22;30476;53.468;9.826;2024-02-04T09:15:56;7.90;99.90
44166;DHT22;30476;53.468;9.826;2024-02-04T09:18:22;7.90;99.90
44166;DHT22;30476;53.468;9.826;2024-02-04T09:20:48;8.00;99.90
44166;DHT22;30476;53.468;9.826;2024-02-04T09:23:14;8.00;99.90
44166;DHT22;30476;53.468;9.826;2024-02-04T09:25:39;8.00;99.90
44166;DHT22;30476;53.468;9.826;2024-02-04T09:28:05;8.10;99.90
44166;DHT22;30476;53.468;9.826;2024-02-04T09:30:31;8.10;99.90
44166;DHT22;30476;53.468;9.826;2024-02-04T09:32:57;8.10;99.90
44166;DHT22;30476;53.468;9.826;2024-02-04T09:35:22;8.10;99.90
44166;DHT22;30476;53.468;9.826;2024-02-04T09:37:48;8.20;99.90
44166;DHT22;30476;53.468;9.826;2024-02-04T09:40:14;8.10;99.90
44166;DHT22;30476;53.468;9.826;2024-02-04T09:42:40;8.20;99.90
44166;DHT22;30476;53.468;9.826;2024-02-04T09:45:07;8.20;99.90
44166;DHT22;30476;53.468;9.826;2024-02-04T09:47:34;8.20;99.90
44166;DHT22;30476;53.468;9.826;2024-02-04T09:50:00;8.30;99.90
44166;DHT22;30476;53.468;9.826;2024-02-04T09:52:29;8.30;99.90
44166;DHT22;30476;53.468;9.826;2024-02-04T09:54:59;8.30;99.90
44166;DHT22;30476;53.468;9.826;2024-02-04T09:57:26;8.30;99.90
44166;DHT22;30476;53.468;9.826;2024-02-04T09:59:52;8.30;99.90
44166;DHT22;30476;53.468;9.826;2024-02-04T10:02:18;8.30;99.90
44166;DHT22;30476;53.468;9.826;2024-02-04T10:04:44;8.30;99.90
44166;DHT22;30476;53.468;9.826;2024-02-04T10:07:10;8.40;99.90
44166;DHT22;30476;53.468;9.826;2024-02-04T10:09:38;8.40;99.90
44166;DHT22;30476;53.468;9.826;2024-02-04T10:12:05;8.40;99.90
44166;DHT22;30476;53.468;9.826;2024-02-04T10:14:31;8.40;99.90
44166;DHT22;30476;53.468;9.826;2024-02-04T10:16:57;8.40;99.90
44166;DHT22;30476;53.468;9.826;2024-02-04T10:19:25;8.40;99.90
44166;DHT22;30476;53.468;9.826;2024-02-04T10:22:02;8.40;99.90
44166;DHT22;30476;53.468;9.826;2024-02-04T10:24:28;8.40;99.90
44166;DHT22;30476;53.468;9.826;2024-02-04T10:26:55;8.50;99.90
44166;DHT22;30476;53.468;9.826;2024-02-04T10:29:25;8.50;99.90
44166;DHT22;30476;53.468;9.826;2024-02-04T10:31:55;8.50;99.90
44166;DHT22;30476;53.468;9.826;2024-02-04T10:34:20;8.50;99.90
44166;DHT22;30476;53.468;9.826;2024-02-04T10:36:47;8.50;99.90
44166;DHT22;30476;53.468;9.826;2024-02-04T10:39:13;8.60;99.90
44166;DHT22;30476;53.468;9.826;2024-02-04T10:41:48;8.60;99.90
44166;DHT22;30476;53.468;9.826;2024-02-04T10:44:17;8.60;99.90
44166;DHT22;30476;53.468;9.826;2024-02-04T10:46:46;8.70;99.90
44166;DHT22;30476;53.468;9.826;2024-02-04T10:49:14;8.60;99.90
44166;DHT22;30476;53.468;9.826;2024-02-04T10:51:42;8.60;99.90
44166;DHT22;30476;53.468;9.826;2024-02-04T10:54:08;8.70;99.90
44166;DHT22;30476;53.468;9.826;2024-02-04T10:56:41;8.70;99.90
44166;DHT22;30476;53.468;9.826;2024-02-04T10:59:08;8.70;99.90
44166;DHT22;30476;53.468;9.826;2024-02-04T11:01:35;8.80;99.90
44166;DHT22;30476;53.468;9.826;2024-02-04T11:04:02;8.80;99.90
44166;DHT22;30476;53.468;9.826;2024-02-04T11:06:29;8.70;99.90
44166;DHT22;30476;53.468;9.826;2024-02-04T11:08:56;8.70;99.90
44166;DHT22;30476;53.468;9.826;2024-02-04T11:11:24;8.70;99.90
44166;DHT22;30476;53.468;9.826;2024-02-04T11:13:55;8.80;99.90
44166;DHT22;30476;53.468;9.826;2024-02-04T11:22:37;8.80;99.90
44166;DHT22;30476;53.468;9.826;2024-02-04T11:27:52;8.90;99.90
44166;DHT22;30476;53.468;9.826;2024-02-04T11:30:18;8.90;99.90
44166;DHT22;30476;53.468;9.826;2024-02-04T11:32:45;8.90;99.90
44166;DHT22;30476;53.468;9.826;2024-02-04T11:35:12;8.90;99.90
44166;DHT22;30476;53.468;9.826;2024-02-04T11:37:38;9.00;99.90
44166;DHT22;30476;53.468;9.826;2024-02-04T11:40:13;9.00;99.90
44166;DHT22;30476;53.468;9.826;2024-02-04T11:42:39;9.00;99.90
44166;DHT22;30476;53.468;9.826;2024-02-04T11:45:12;9.00;99.90
44166;DHT22;30476;53.468;9.826;2024-02-04T11:47:38;9.00;99.90
44166;DHT22;30476;53.468;9.826;2024-02-04T11:50:06;9.10;99.90
44166;DHT22;30476;53.468;9.826;2024-02-04T11:52:32;9.10;99.90
44166;DHT22;30476;53.468;9.826;2024-02-04T11:54:58;9.20;99.90
44166;DHT22;30476;53.468;9.826;2024-02-04T11:57:24;9.20;99.90
44166;DHT22;30476;53.468;9.826;2024-02-04T11:59:52;9.20;99.90
44166;DHT22;30476;53.468;9.826;2024-02-04T12:02:20;9.30;99.90
44166;DHT22;30476;53.468;9.826;2024-02-04T12:04:46;9.30;99.90
44166;DHT22;30476;53.468;9.826;2024-02-04T12:07:13;9.30;99.90
44166;DHT22;30476;53.468;9.826;2024-02-04T12:09:40;9.30;99.90
44166;DHT22;30476;53.468;9.826;2024-02-04T12:12:06;9.40;99.90
44166;DHT22;30476;53.468;9.826;2024-02-04T12:14:35;9.40;99.90
44166;DHT22;30476;53.468;9.826;2024-02-04T12:17:08;9.40;99.90
44166;DHT22;30476;53.468;9.826;2024-02-04T12:19:35;9.40;99.90
44166;DHT22;30476;53.468;9.826;2024-02-04T12:22:01;9.40;99.90
44166;DHT22;30476;53.468;9.826;2024-02-04T12:24:28;9.50;99.90
44166;DHT22;30476;53.468;9.826;2024-02-04T12:26:53;9.50;99.90
44166;DHT22;30476;53.468;9.826;2024-02-04T12:29:19;9.50;99.90
44166;DHT22;30476;53.468;9.826;2024-02-04T12:31:45;9.50;99.90
44166;DHT22;30476;53.468;9.826;2024-02-04T12:34:12;9.60;99.90
44166;DHT22;30476;53.468;9.826;2024-02-04T12:36:38;9.60;99.90
44166;DHT22;30476;53.468;9.826;2024-02-04T12:39:04;9.60;99.90
44166;DHT22;30476;53.468;9.826;2024-02-04T12:41:33;9.60;99.90
44166;DHT22;30476;53.468;9.826;2024-02-04T12:43:59;9.70;99.90
44166;DHT22;30476;53.468;9.826;2024-02-04T12:46:26;9.70;99.90
44166;DHT22;30476;53.468;9.826;2024-02-04T12:48:53;9.70;99.90
44166;DHT22;30476;53.468;9.826;2024-02-04T12:51:30;9.80;99.90
44166;DHT22;30476;53.468;9.826;2024-02-04T12:54:10;9.80;99.90
44166;DHT22;30476;53.468;9.826;2024-02-04T12:56:46;9.80;99.90
44166;DHT22;30476;53.468;9.826;2024-02-04T12:59:23;9.80;99.90
44166;DHT22;30476;53.468;9.826;2024-02-04T13:01:53;9.80;99.90
44166;DHT22;30476;53.468;9.826;2024-02-04T13:04:19;9.80;99.90
44166;DHT22;30476;53.468;9.826;2024-02-04T13:06:45;9.80;99.90
44166;DHT22;30476;53.468;9.826;2024-02-04T13:09:10;9.80;99.90
44166;DHT22;30476;53.468;9.826;2024-02-04T13:11:37;9.80;99.90
44166;DHT22;30476;53.468;9.826;2024-02-04T13:14:02;9.80;99.90
44166;DHT22;30476;53.468;9.826;2024-02-04T13:16:28;9.80;99.90
44166;DHT22;30476;53.468;9.826;2024-02-04T13:18:56;9.80;99.90
44166;DHT22;30476;53.468;9.826;2024-02-04T13:21:21;9.80;99.90
44166;DHT22;30476;53.468;9.826;2024-02-04T13:23:50;9.80;99.90
44166;DHT22;30476;53.468;9.826;2024-02-04T13:26:17;9.80;99.90
44166;DHT22;30476;53.468;9.826;2024-02-04T13:28:43;9.80;99.90
44166;DHT22;30476;53.468;9.826;2024-02-04T13:31:09;9.80;99.90
44166;DHT22;30476;53.468;9.826;2024-02-04T13:33:35;9.80;99.90
44166;DHT22;30476;53.468;9.826;2024-02-04T13:36:01;9.80;99.90
44166;DHT22;30476;53.468;9.826;2024-02-04T13:38:27;9.80;99.90
44166;DHT22;30476;53.468;9.826;2024-02-04T13:40:53;9.80;99.90
44166;DHT22;30476;53.468;9.826;2024-02-04T13:43:19;9.80;99.90
44166;DHT22;30476;53.468;9.826;2024-02-04T13:45:45;9.80;99.90
44166;DHT22;30476;53.468;9.826;2024-02-04T13:48:10;9.80;99.90
44166;DHT22;30476;53.468;9.826;2024-02-04T13:50:36;9.80;99.90
44166;DHT22;30476;53.468;9.826;2024-02-04T13:53:02;9.80;99.90
44166;DHT22;30476;53.468;9.826;2024-02-04T13:55:28;9.80;99.90
44166;DHT22;30476;53.468;9.826;2024-02-04T13:57:54;9.80;99.90
44166;DHT22;30476;53.468;9.826;2024-02-04T14:00:20;9.70;99.90
44166;DHT22;30476;53.468;9.826;2024-02-04T14:02:46;9.80;99.90
44166;DHT22;30476;53.468;9.826;2024-02-04T14:05:11;9.80;99.90
44166;DHT22;30476;53.468;9.826;2024-02-04T14:07:37;9.70;99.90
44166;DHT22;30476;53.468;9.826;2024-02-04T14:10:04;9.70;99.90
44166;DHT22;30476;53.468;9.826;2024-02-04T14:12:30;9.70;99.90
44166;DHT22;30476;53.468;9.826;2024-02-04T14:14:57;9.70;99.90
44166;DHT22;30476;53.468;9.826;2024-02-04T14:17:23;9.70;99.90
44166;DHT22;30476;53.468;9.826;2024-02-04T14:19:49;9.70;99.90
44166;DHT22;30476;53.468;9.826;2024-02-04T14:22:17;9.70;99.90
44166;DHT22;30476;53.468;9.826;2024-02-04T14:24:43;9.70;99.90
44166;DHT22;30476;53.468;9.826;2024-02-04T14:27:11;9.70;99.90
44166;DHT22;30476;53.468;9.826;2024-02-04T14:29:37;9.70;99.90
44166;DHT22;30476;53.468;9.826;2024-02-04T14:32:03;9.70;99.90
44166;DHT22;30476;53.468;9.826;2024-02-04T14:34:28;9.70;99.90
44166;DHT22;30476;53.468;9.826;2024-02-04T14:36:54;9.70;99.90
44166;DHT22;30476;53.468;9.826;2024-02-04T14:39:20;9.60;99.90
44166;DHT22;30476;53.468;9.826;2024-02-04T14:41:46;9.70;99.90
44166;DHT22;30476;53.468;9.826;2024-02-04T14:44:12;9.60;99.90
44166;DHT22;30476;53.468;9.826;2024-02-04T14:46:38;9.60;99.90
44166;DHT22;30476;53.468;9.826;2024-02-04T14:49:04;9.60;99.90
44166;DHT22;30476;53.468;9.826;2024-02-04T14:51:30;9.60;99.90
44166;DHT22;30476;53.468;9.826;2024-02-04T14:53:57;9.50;99.90
44166;DHT22;30476;53.468;9.826;2024-02-04T14:56:23;9.60;99.90
44166;DHT22;30476;53.468;9.826;2024-02-04T14:58:49;9.60;99.90
44166;DHT22;30476;53.468;9.826;2024-02-04T15:01:15;9.50;99.90
44166;DHT22;30476;53.468;9.826;2024-02-04T15:03:41;9.50;99.90
44166;DHT22;30476;53.468;9.826;2024-02-04T15:06:07;9.50;99.90
44166;DHT22;30476;53.468;9.826;2024-02-04T15:08:32;9.50;99.90
44166;DHT22;30476;53.468;9.826;2024-02-04T15:10:58;9.50;99.90
44166;DHT22;30476;53.468;9.826;2024-02-04T15:13:26;9.50;99.90
44166;DHT22;30476;53.468;9.826;2024-02-04T15:15:52;9.50;99.90
44166;DHT22;30476;53.468;9.826;2024-02-04T15:18:18;9.50;99.90
44166;DHT22;30476;53.468;9.826;2024-02-04T15:20:44;9.50;99.90
44166;DHT22;30476;53.468;9.826;2024-02-04T15:23:10;9.50;99.90
44166;DHT22;30476;53.468;9.826;2024-02-04T15:25:36;9.40;99.90
44166;DHT22;30476;53.468;9.826;2024-02-04T15:28:03;9.40;99.90
44166;DHT22;30476;53.468;9.826;2024-02-04T15:30:30;9.40;99.90
44166;DHT22;30476;53.468;9.826;2024-02-04T15:32:57;9.40;99.90
44166;DHT22;30476;53.468;9.826;2024-02-04T15:35:23;9.40;99.90
44166;DHT22;30476;53.468;9.826;2024-02-04T15:37:50;9.40;99.90
44166;DHT22;30476;53.468;9.826;2024-02-04T15:40:16;9.40;99.90
44166;DHT22;30476;53.468;9.826;2024-02-04T15:42:42;9.40;99.90
44166;DHT22;30476;53.468;9.826;2024-02-04T15:45:09;9.40;99.90
44166;DHT22;30476;53.468;9.826;2024-02-04T15:47:42;9.40;99.90
44166;DHT22;30476;53.468;9.826;2024-02-04T15:50:10;9.30;99.90
44166;DHT22;30476;53.468;9.826;2024-02-04T15:52:36;9.30;99.90
44166;DHT22;30476;53.468;9.826;2024-02-04T15:55:02;9.30;99.90